sensor_id;sensor_type;location;lat;lon;timestamp;P1;durP1;ratioP1;P2;durP2;ratioP2
37201;SDS011;37799;52.390;6.136;2022-10-15T00:01:17;15.25;;;5.95;;
37201;SDS011;37799;52.390;6.136;2022-10-15T00:03:43;13.65;;;5.03;;
37201;SDS011;37799;52.390;6.136;2022-10-15T00:06:14;17.38;;;6.63;;
37201;SDS011;37799;52.390;6.136;2022-10-15T00:08:41;14.57;;;4.95;;
37201;SDS011;37799;52.390;6.136;2022-10-15T00:11:08;16.65;;;5.78;;
37201;SDS011;37799;52.390;6.136;2022-10-15T00:13:36;14.93;;;5.20;;
37201;SDS011;37799;52.390;6.136;2022-10-15T00:16:02;13.13;;;5.20;;
37201;SDS011;37799;52.390;6.136;2022-10-15T00:18:28;15.35;;;5.85;;
37201;SDS011;37799;52.390;6.136;2022-10-15T00:20:53;14.40;;;5.90;;
37201;SDS011;37799;52.390;6.136;2022-10-15T00:23:19;15.60;;;5.75;;
37201;SDS011;37799;52.390;6.136;2022-10-15T00:25:44;14.38;;;5.07;;
37201;SDS011;37799;52.390;6.136;2022-10-15T00:28:09;15.68;;;5.68;;
37201;SDS011;37799;52.390;6.136;2022-10-15T00:30:34;19.67;;;5.20;;
37201;SDS011;37799;52.390;6.136;2022-10-15T00:33:00;14.35;;;4.80;;
37201;SDS011;37799;52.390;6.136;2022-10-15T00:35:25;16.45;;;5.25;;
37201;SDS011;37799;52.390;6.136;2022-10-15T00:37:50;16.65;;;5.43;;
37201;SDS011;37799;52.390;6.136;2022-10-15T00:40:15;16.95;;;6.72;;
37201;SDS011;37799;52.390;6.136;2022-10-15T00:42:41;14.70;;;4.93;;
37201;SDS011;37799;52.390;6.136;2022-10-15T00:45:10;14.80;;;5.40;;
37201;SDS011;37799;52.390;6.136;2022-10-15T00:47:38;15.25;;;5.85;;
37201;SDS011;37799;52.390;6.136;2022-10-15T00:52:50;18.50;;;5.80;;
37201;SDS011;37799;52.390;6.136;2022-10-15T00:55:28;15.10;;;5.28;;
37201;SDS011;37799;52.390;6.136;2022-10-15T00:57:58;18.17;;;6.22;;
37201;SDS011;37799;52.390;6.136;2022-10-15T01:00:27;13.60;;;4.65;;
37201;SDS011;37799;52.390;6.136;2022-10-15T01:02:52;15.45;;;5.25;;
37201;SDS011;37799;52.390;6.136;2022-10-15T01:05:18;14.32;;;5.50;;
37201;SDS011;37799;52.390;6.136;2022-10-15T01:07:45;18.27;;;6.57;;
37201;SDS011;37799;52.390;6.136;2022-10-15T01:10:11;17.33;;;6.15;;
37201;SDS011;37799;52.390;6.136;2022-10-15T01:12:56;17.70;;;6.22;;
37201;SDS011;37799;52.390;6.136;2022-10-15T01:15:28;18.08;;;5.13;;
37201;SDS011;37799;52.390;6.136;2022-10-15T01:18:03;17.08;;;6.70;;
37201;SDS011;37799;52.390;6.136;2022-10-15T01:20:49;16.13;;;5.80;;
37201;SDS011;37799;52.390;6.136;2022-10-15T01:32:25;19.77;;;6.07;;
37201;SDS011;37799;52.390;6.136;2022-10-15T01:34:53;19.80;;;7.35;;
37201;SDS011;37799;52.390;6.136;2022-10-15T01:40:03;19.17;;;7.00;;
37201;SDS011;37799;52.390;6.136;2022-10-15T01:42:33;16.35;;;5.80;;
37201;SDS011;37799;52.390;6.136;2022-10-15T01:45:06;17.38;;;7.15;;
37201;SDS011;37799;52.390;6.136;2022-10-15T01:47:35;17.05;;;6.22;;
37201;SDS011;37799;52.390;6.136;2022-10-15T01:50:03;17.05;;;7.10;;
37201;SDS011;37799;52.390;6.136;2022-10-15T01:52:31;16.52;;;6.15;;
37201;SDS011;37799;52.390;6.136;2022-10-15T01:55:00;21.67;;;7.53;;
37201;SDS011;37799;52.390;6.136;2022-10-15T01:57:29;19.58;;;6.40;;
37201;SDS011;37799;52.390;6.136;2022-10-15T01:59:57;16.67;;;6.55;;
37201;SDS011;37799;52.390;6.136;2022-10-15T02:02:23;20.38;;;7.38;;
37201;SDS011;37799;52.390;6.136;2022-10-15T02:04:48;17.38;;;6.35;;
37201;SDS011;37799;52.390;6.136;2022-10-15T02:09:53;16.83;;;6.28;;
37201;SDS011;37799;52.390;6.136;2022-10-15T02:18:15;18.55;;;7.03;;
37201;SDS011;37799;52.390;6.136;2022-10-15T02:20:50;15.88;;;6.57;;
37201;SDS011;37799;52.390;6.136;2022-10-15T02:23:44;20.27;;;6.35;;
37201;SDS011;37799;52.390;6.136;2022-10-15T02:26:15;16.48;;;5.93;;
37201;SDS011;37799;52.390;6.136;2022-10-15T02:28:44;17.38;;;6.28;;
37201;SDS011;37799;52.390;6.136;2022-10-15T02:31:14;16.20;;;6.78;;
37201;SDS011;37799;52.390;6.136;2022-10-15T02:33:43;18.30;;;6.45;;
37201;SDS011;37799;52.390;6.136;2022-10-15T02:36:09;18.95;;;7.03;;
37201;SDS011;37799;52.390;6.136;2022-10-15T02:38:35;15.82;;;6.00;;
37201;SDS011;37799;52.390;6.136;2022-10-15T02:41:02;15.77;;;6.28;;
37201;SDS011;37799;52.390;6.136;2022-10-15T02:43:28;20.40;;;7.07;;
37201;SDS011;37799;52.390;6.136;2022-10-15T02:45:54;14.80;;;6.38;;
37201;SDS011;37799;52.390;6.136;2022-10-15T02:48:19;15.70;;;6.30;;
37201;SDS011;37799;52.390;6.136;2022-10-15T02:50:45;17.60;;;7.20;;
37201;SDS011;37799;52.390;6.136;2022-10-15T02:53:10;17.02;;;6.38;;
37201;SDS011;37799;52.390;6.136;2022-10-15T02:55:35;18.88;;;6.93;;
37201;SDS011;37799;52.390;6.136;2022-10-15T02:58:00;19.63;;;6.72;;
37201;SDS011;37799;52.390;6.136;2022-10-15T03:00:26;18.13;;;6.15;;
37201;SDS011;37799;52.390;6.136;2022-10-15T03:02:51;21.48;;;7.15;;
37201;SDS011;37799;52.390;6.136;2022-10-15T03:05:17;17.27;;;6.60;;
37201;SDS011;37799;52.390;6.136;2022-10-15T03:07:42;24.02;;;8.88;;
37201;SDS011;37799;52.390;6.136;2022-10-15T03:10:07;19.77;;;7.20;;
37201;SDS011;37799;52.390;6.136;2022-10-15T03:12:33;22.85;;;7.55;;
37201;SDS011;37799;52.390;6.136;2022-10-15T03:14:58;19.17;;;7.63;;
37201;SDS011;37799;52.390;6.136;2022-10-15T03:17:24;18.70;;;7.47;;
37201;SDS011;37799;52.390;6.136;2022-10-15T03:19:49;19.20;;;6.53;;
37201;SDS011;37799;52.390;6.136;2022-10-15T03:22:14;20.75;;;7.55;;
37201;SDS011;37799;52.390;6.136;2022-10-15T03:24:40;20.15;;;6.85;;
37201;SDS011;37799;52.390;6.136;2022-10-15T03:27:05;18.08;;;6.32;;
37201;SDS011;37799;52.390;6.136;2022-10-15T03:29:30;23.42;;;7.88;;
37201;SDS011;37799;52.390;6.136;2022-10-15T03:31:56;20.00;;;7.85;;
37201;SDS011;37799;52.390;6.136;2022-10-15T03:34:21;20.52;;;7.60;;
37201;SDS011;37799;52.390;6.136;2022-10-15T03:36:46;21.65;;;7.50;;
37201;SDS011;37799;52.390;6.136;2022-10-15T03:39:12;19.58;;;7.97;;
37201;SDS011;37799;52.390;6.136;2022-10-15T03:41:37;19.67;;;6.80;;
37201;SDS011;37799;52.390;6.136;2022-10-15T03:44:04;20.55;;;7.18;;
37201;SDS011;37799;52.390;6.136;2022-10-15T03:46:31;18.80;;;7.45;;
37201;SDS011;37799;52.390;6.136;2022-10-15T03:48:56;20.95;;;8.38;;
37201;SDS011;37799;52.390;6.136;2022-10-15T03:51:22;19.88;;;6.30;;
37201;SDS011;37799;52.390;6.136;2022-10-15T03:53:47;18.75;;;7.32;;
37201;SDS011;37799;52.390;6.136;2022-10-15T03:56:13;20.30;;;7.22;;
37201;SDS011;37799;52.390;6.136;2022-10-15T03:58:38;19.98;;;7.25;;
37201;SDS011;37799;52.390;6.136;2022-10-15T04:01:08;19.08;;;6.72;;
37201;SDS011;37799;52.390;6.136;2022-10-15T04:03:34;22.98;;;7.53;;
37201;SDS011;37799;52.390;6.136;2022-10-15T04:05:59;19.42;;;6.97;;
37201;SDS011;37799;52.390;6.136;2022-10-15T04:08:25;21.98;;;7.03;;
37201;SDS011;37799;52.390;6.136;2022-10-15T04:10:50;18.83;;;7.18;;
37201;SDS011;37799;52.390;6.136;2022-10-15T04:13:15;18.95;;;6.72;;
37201;SDS011;37799;52.390;6.136;2022-10-15T04:15:41;20.08;;;6.90;;
37201;SDS011;37799;52.390;6.136;2022-10-15T04:18:06;20.65;;;6.70;;
37201;SDS011;37799;52.390;6.136;2022-10-15T04:20:31;18.60;;;6.50;;
37201;SDS011;37799;52.390;6.136;2022-10-15T04:22:57;18.25;;;6.50;;
37201;SDS011;37799;52.390;6.136;2022-10-15T04:25:22;19.90;;;7.97;;
37201;SDS011;37799;52.390;6.136;2022-10-15T04:27:47;19.40;;;7.15;;
37201;SDS011;37799;52.390;6.136;2022-10-15T04:30:13;32.17;;;8.68;;
37201;SDS011;37799;52.390;6.136;2022-10-15T04:32:38;20.17;;;7.60;;
37201;SDS011;37799;52.390;6.136;2022-10-15T04:35:04;20.85;;;6.75;;
37201;SDS011;37799;52.390;6.136;2022-10-15T04:37:31;20.10;;;6.63;;
37201;SDS011;37799;52.390;6.136;2022-10-15T04:40:00;24.58;;;7.85;;
37201;SDS011;37799;52.390;6.136;2022-10-15T04:42:27;19.67;;;7.05;;
37201;SDS011;37799;52.390;6.136;2022-10-15T04:44:53;20.55;;;7.43;;
37201;SDS011;37799;52.390;6.136;2022-10-15T04:47:18;19.15;;;7.03;;
37201;SDS011;37799;52.390;6.136;2022-10-15T04:49:44;19.63;;;7.28;;
37201;SDS011;37799;52.390;6.136;2022-10-15T04:52:09;22.13;;;8.00;;
37201;SDS011;37799;52.390;6.136;2022-10-15T04:54:34;20.02;;;6.97;;
37201;SDS011;37799;52.390;6.136;2022-10-15T04:57:01;22.52;;;7.95;;
37201;SDS011;37799;52.390;6.136;2022-10-15T04:59:27;20.58;;;6.90;;
37201;SDS011;37799;52.390;6.136;2022-10-15T05:01:53;22.38;;;7.78;;
37201;SDS011;37799;52.390;6.136;2022-10-15T05:04:18;19.30;;;7.60;;
37201;SDS011;37799;52.390;6.136;2022-10-15T05:06:43;22.88;;;8.60;;
37201;SDS011;37799;52.390;6.136;2022-10-15T05:09:09;19.65;;;6.95;;
37201;SDS011;37799;52.390;6.136;2022-10-15T05:11:34;21.50;;;8.00;;
37201;SDS011;37799;52.390;6.136;2022-10-15T05:14:02;22.00;;;7.75;;
37201;SDS011;37799;52.390;6.136;2022-10-15T05:16:27;22.23;;;7.50;;
37201;SDS011;37799;52.390;6.136;2022-10-15T05:18:55;21.90;;;7.32;;
37201;SDS011;37799;52.390;6.136;2022-10-15T05:21:22;21.33;;;8.68;;
37201;SDS011;37799;52.390;6.136;2022-10-15T05:23:47;21.08;;;7.13;;
37201;SDS011;37799;52.390;6.136;2022-10-15T05:26:18;21.52;;;7.47;;
37201;SDS011;37799;52.390;6.136;2022-10-15T05:28:45;18.98;;;6.85;;
37201;SDS011;37799;52.390;6.136;2022-10-15T05:31:12;21.08;;;7.95;;
37201;SDS011;37799;52.390;6.136;2022-10-15T05:33:39;18.58;;;7.25;;
37201;SDS011;37799;52.390;6.136;2022-10-15T05:36:13;22.63;;;8.55;;
37201;SDS011;37799;52.390;6.136;2022-10-15T05:38:46;22.60;;;8.18;;
37201;SDS011;37799;52.390;6.136;2022-10-15T05:41:13;19.02;;;7.00;;
37201;SDS011;37799;52.390;6.136;2022-10-15T05:43:39;20.85;;;7.47;;
37201;SDS011;37799;52.390;6.136;2022-10-15T05:46:05;21.67;;;7.90;;
37201;SDS011;37799;52.390;6.136;2022-10-15T05:48:30;25.77;;;7.70;;
37201;SDS011;37799;52.390;6.136;2022-10-15T05:51:00;19.67;;;7.53;;
37201;SDS011;37799;52.390;6.136;2022-10-15T05:53:29;22.20;;;8.40;;
37201;SDS011;37799;52.390;6.136;2022-10-15T05:55:54;21.33;;;7.78;;
37201;SDS011;37799;52.390;6.136;2022-10-15T05:58:20;23.35;;;8.60;;
37201;SDS011;37799;52.390;6.136;2022-10-15T06:00:51;26.17;;;9.35;;
37201;SDS011;37799;52.390;6.136;2022-10-15T06:03:18;21.45;;;7.95;;
37201;SDS011;37799;52.390;6.136;2022-10-15T06:05:43;27.05;;;9.65;;
37201;SDS011;37799;52.390;6.136;2022-10-15T06:08:09;24.35;;;9.43;;
37201;SDS011;37799;52.390;6.136;2022-10-15T06:10:35;20.85;;;8.10;;
37201;SDS011;37799;52.390;6.136;2022-10-15T06:13:01;22.95;;;8.20;;
37201;SDS011;37799;52.390;6.136;2022-10-15T06:15:28;26.92;;;9.35;;
37201;SDS011;37799;52.390;6.136;2022-10-15T06:17:53;26.10;;;9.15;;
37201;SDS011;37799;52.390;6.136;2022-10-15T06:20:19;28.80;;;9.57;;
37201;SDS011;37799;52.390;6.136;2022-10-15T06:22:44;28.40;;;11.25;;
37201;SDS011;37799;52.390;6.136;2022-10-15T06:25:09;25.20;;;8.55;;
37201;SDS011;37799;52.390;6.136;2022-10-15T06:27:35;22.95;;;8.95;;
37201;SDS011;37799;52.390;6.136;2022-10-15T06:30:00;27.30;;;9.20;;
37201;SDS011;37799;52.390;6.136;2022-10-15T06:32:25;34.20;;;10.90;;
37201;SDS011;37799;52.390;6.136;2022-10-15T06:34:51;31.13;;;10.57;;
37201;SDS011;37799;52.390;6.136;2022-10-15T06:37:16;23.75;;;9.15;;
37201;SDS011;37799;52.390;6.136;2022-10-15T06:39:41;25.88;;;8.93;;
37201;SDS011;37799;52.390;6.136;2022-10-15T06:42:06;27.73;;;9.85;;
37201;SDS011;37799;52.390;6.136;2022-10-15T06:44:32;25.35;;;10.70;;
37201;SDS011;37799;52.390;6.136;2022-10-15T06:46:57;26.05;;;9.77;;
37201;SDS011;37799;52.390;6.136;2022-10-15T06:49:23;29.23;;;9.57;;
37201;SDS011;37799;52.390;6.136;2022-10-15T06:51:48;31.63;;;11.07;;
37201;SDS011;37799;52.390;6.136;2022-10-15T06:54:13;27.30;;;9.63;;
37201;SDS011;37799;52.390;6.136;2022-10-15T06:56:39;28.63;;;10.45;;
37201;SDS011;37799;52.390;6.136;2022-10-15T06:59:04;27.90;;;9.93;;
37201;SDS011;37799;52.390;6.136;2022-10-15T07:01:29;30.02;;;10.88;;
37201;SDS011;37799;52.390;6.136;2022-10-15T07:03:55;27.27;;;10.52;;
37201;SDS011;37799;52.390;6.136;2022-10-15T07:06:20;28.50;;;11.55;;
37201;SDS011;37799;52.390;6.136;2022-10-15T07:08:45;31.33;;;9.82;;
37201;SDS011;37799;52.390;6.136;2022-10-15T07:11:10;29.00;;;11.27;;
37201;SDS011;37799;52.390;6.136;2022-10-15T07:13:36;29.45;;;10.25;;
37201;SDS011;37799;52.390;6.136;2022-10-15T07:16:05;30.90;;;10.50;;
37201;SDS011;37799;52.390;6.136;2022-10-15T07:18:32;28.23;;;10.77;;
37201;SDS011;37799;52.390;6.136;2022-10-15T07:20:58;30.65;;;11.05;;
37201;SDS011;37799;52.390;6.136;2022-10-15T07:23:24;27.52;;;10.80;;
37201;SDS011;37799;52.390;6.136;2022-10-15T07:25:49;29.33;;;9.82;;
37201;SDS011;37799;52.390;6.136;2022-10-15T07:28:15;30.10;;;9.73;;
37201;SDS011;37799;52.390;6.136;2022-10-15T07:30:40;25.17;;;9.25;;
37201;SDS011;37799;52.390;6.136;2022-10-15T07:33:05;31.73;;;11.55;;
37201;SDS011;37799;52.390;6.136;2022-10-15T07:35:30;27.95;;;9.10;;
37201;SDS011;37799;52.390;6.136;2022-10-15T07:37:59;28.38;;;11.13;;
37201;SDS011;37799;52.390;6.136;2022-10-15T07:40:25;29.95;;;10.40;;
37201;SDS011;37799;52.390;6.136;2022-10-15T07:42:53;22.55;;;8.25;;
37201;SDS011;37799;52.390;6.136;2022-10-15T07:45:20;22.92;;;8.15;;
37201;SDS011;37799;52.390;6.136;2022-10-15T07:47:45;26.38;;;8.20;;
37201;SDS011;37799;52.390;6.136;2022-10-15T07:50:10;22.88;;;8.45;;
37201;SDS011;37799;52.390;6.136;2022-10-15T07:52:36;23.65;;;7.55;;
37201;SDS011;37799;52.390;6.136;2022-10-15T07:55:01;23.33;;;7.70;;
37201;SDS011;37799;52.390;6.136;2022-10-15T07:57:26;19.52;;;7.50;;
37201;SDS011;37799;52.390;6.136;2022-10-15T07:59:51;22.77;;;8.88;;
37201;SDS011;37799;52.390;6.136;2022-10-15T08:02:19;21.38;;;7.28;;
37201;SDS011;37799;52.390;6.136;2022-10-15T08:04:45;21.13;;;7.63;;
37201;SDS011;37799;52.390;6.136;2022-10-15T08:07:10;19.67;;;6.88;;
37201;SDS011;37799;52.390;6.136;2022-10-15T08:09:35;16.38;;;5.22;;
37201;SDS011;37799;52.390;6.136;2022-10-15T08:12:01;17.17;;;6.30;;
37201;SDS011;37799;52.390;6.136;2022-10-15T08:14:26;15.00;;;5.65;;
37201;SDS011;37799;52.390;6.136;2022-10-15T08:16:51;15.70;;;6.05;;
37201;SDS011;37799;52.390;6.136;2022-10-15T08:19:17;15.38;;;5.43;;
37201;SDS011;37799;52.390;6.136;2022-10-15T08:21:43;17.15;;;6.70;;
37201;SDS011;37799;52.390;6.136;2022-10-15T08:24:08;15.38;;;5.05;;
37201;SDS011;37799;52.390;6.136;2022-10-15T08:26:34;12.82;;;4.70;;
37201;SDS011;37799;52.390;6.136;2022-10-15T08:28:59;14.23;;;5.40;;
37201;SDS011;37799;52.390;6.136;2022-10-15T08:31:25;13.60;;;4.70;;
37201;SDS011;37799;52.390;6.136;2022-10-15T08:33:50;12.63;;;4.25;;
37201;SDS011;37799;52.390;6.136;2022-10-15T08:36:15;14.35;;;4.22;;
37201;SDS011;37799;52.390;6.136;2022-10-15T08:38:41;15.02;;;5.47;;
37201;SDS011;37799;52.390;6.136;2022-10-15T08:41:13;16.88;;;6.10;;
37201;SDS011;37799;52.390;6.136;2022-10-15T08:43:49;14.38;;;4.70;;
37201;SDS011;37799;52.390;6.136;2022-10-15T08:46:17;16.02;;;5.82;;
37201;SDS011;37799;52.390;6.136;2022-10-15T08:48:53;16.48;;;5.07;;
37201;SDS011;37799;52.390;6.136;2022-10-15T08:51:24;18.65;;;6.43;;
37201;SDS011;37799;52.390;6.136;2022-10-15T08:53:58;15.38;;;5.38;;
37201;SDS011;37799;52.390;6.136;2022-10-15T08:56:27;15.27;;;5.68;;
37201;SDS011;37799;52.390;6.136;2022-10-15T08:59:00;17.52;;;5.72;;
37201;SDS011;37799;52.390;6.136;2022-10-15T09:01:46;16.77;;;5.30;;
37201;SDS011;37799;52.390;6.136;2022-10-15T09:04:30;13.80;;;5.10;;
37201;SDS011;37799;52.390;6.136;2022-10-15T09:09:50;15.15;;;4.85;;
37201;SDS011;37799;52.390;6.136;2022-10-15T09:14:49;19.17;;;6.15;;
37201;SDS011;37799;52.390;6.136;2022-10-15T09:19:44;19.10;;;6.20;;
37201;SDS011;37799;52.390;6.136;2022-10-15T09:22:14;21.38;;;7.72;;
37201;SDS011;37799;52.390;6.136;2022-10-15T09:24:42;22.83;;;6.85;;
37201;SDS011;37799;52.390;6.136;2022-10-15T09:27:09;23.63;;;6.72;;
37201;SDS011;37799;52.390;6.136;2022-10-15T09:29:40;22.02;;;8.25;;
37201;SDS011;37799;52.390;6.136;2022-10-15T09:32:12;28.67;;;9.75;;
37201;SDS011;37799;52.390;6.136;2022-10-15T09:34:58;35.83;;;9.15;;
37201;SDS011;37799;52.390;6.136;2022-10-15T09:37:38;35.97;;;9.07;;
37201;SDS011;37799;52.390;6.136;2022-10-15T09:42:44;19.85;;;6.97;;
37201;SDS011;37799;52.390;6.136;2022-10-15T09:45:13;16.98;;;6.05;;
37201;SDS011;37799;52.390;6.136;2022-10-15T09:47:40;14.63;;;4.68;;
37201;SDS011;37799;52.390;6.136;2022-10-15T09:50:09;12.35;;;5.22;;
37201;SDS011;37799;52.390;6.136;2022-10-15T09:52:49;13.13;;;4.40;;
37201;SDS011;37799;52.390;6.136;2022-10-15T09:58:49;10.25;;;3.80;;
37201;SDS011;37799;52.390;6.136;2022-10-15T10:01:05;12.60;;;4.03;;
37201;SDS011;37799;52.390;6.136;2022-10-15T10:03:32;13.32;;;4.45;;
37201;SDS011;37799;52.390;6.136;2022-10-15T10:06:00;12.70;;;4.43;;
37201;SDS011;37799;52.390;6.136;2022-10-15T10:08:33;10.43;;;3.25;;
37201;SDS011;37799;52.390;6.136;2022-10-15T10:11:02;10.03;;;3.20;;
37201;SDS011;37799;52.390;6.136;2022-10-15T10:13:31;10.55;;;4.15;;
37201;SDS011;37799;52.390;6.136;2022-10-15T10:16:04;9.98;;;3.20;;
37201;SDS011;37799;52.390;6.136;2022-10-15T10:18:33;9.85;;;3.35;;
37201;SDS011;37799;52.390;6.136;2022-10-15T10:21:02;10.52;;;3.65;;
37201;SDS011;37799;52.390;6.136;2022-10-15T10:23:34;9.02;;;2.67;;
37201;SDS011;37799;52.390;6.136;2022-10-15T10:26:02;8.95;;;3.00;;
37201;SDS011;37799;52.390;6.136;2022-10-15T10:31:28;9.52;;;3.53;;
37201;SDS011;37799;52.390;6.136;2022-10-15T10:33:56;9.45;;;3.58;;
37201;SDS011;37799;52.390;6.136;2022-10-15T10:36:29;10.05;;;2.92;;
37201;SDS011;37799;52.390;6.136;2022-10-15T10:39:03;9.35;;;3.20;;
37201;SDS011;37799;52.390;6.136;2022-10-15T10:41:46;9.75;;;3.10;;
37201;SDS011;37799;52.390;6.136;2022-10-15T10:52:01;9.75;;;2.72;;
37201;SDS011;37799;52.390;6.136;2022-10-15T10:54:28;9.75;;;3.38;;
37201;SDS011;37799;52.390;6.136;2022-10-15T10:56:55;7.95;;;3.03;;
37201;SDS011;37799;52.390;6.136;2022-10-15T10:59:35;8.05;;;3.03;;
37201;SDS011;37799;52.390;6.136;2022-10-15T11:02:10;8.15;;;2.53;;
37201;SDS011;37799;52.390;6.136;2022-10-15T11:04:36;8.60;;;2.90;;
37201;SDS011;37799;52.390;6.136;2022-10-15T11:07:20;8.35;;;2.90;;
37201;SDS011;37799;52.390;6.136;2022-10-15T11:09:49;8.90;;;2.78;;
37201;SDS011;37799;52.390;6.136;2022-10-15T11:29:20;9.63;;;3.30;;
37201;SDS011;37799;52.390;6.136;2022-10-15T11:32:09;10.60;;;3.13;;
37201;SDS011;37799;52.390;6.136;2022-10-15T11:37:38;8.60;;;2.50;;
37201;SDS011;37799;52.390;6.136;2022-10-15T11:42:58;7.15;;;2.20;;
37201;SDS011;37799;52.390;6.136;2022-10-15T11:50:48;9.38;;;2.60;;
37201;SDS011;37799;52.390;6.136;2022-10-15T11:53:35;8.77;;;2.83;;
37201;SDS011;37799;52.390;6.136;2022-10-15T11:56:10;8.75;;;2.60;;
37201;SDS011;37799;52.390;6.136;2022-10-15T11:58:51;8.48;;;2.88;;
37201;SDS011;37799;52.390;6.136;2022-10-15T12:01:24;10.40;;;2.65;;
37201;SDS011;37799;52.390;6.136;2022-10-15T12:03:58;7.75;;;2.60;;
37201;SDS011;37799;52.390;6.136;2022-10-15T12:06:27;6.57;;;2.30;;
37201;SDS011;37799;52.390;6.136;2022-10-15T12:08:57;8.38;;;2.33;;
37201;SDS011;37799;52.390;6.136;2022-10-15T12:14:11;8.25;;;2.75;;
37201;SDS011;37799;52.390;6.136;2022-10-15T12:19:17;6.82;;;2.42;;
37201;SDS011;37799;52.390;6.136;2022-10-15T12:27:15;6.68;;;2.28;;
37201;SDS011;37799;52.390;6.136;2022-10-15T12:29:49;6.65;;;2.33;;
37201;SDS011;37799;52.390;6.136;2022-10-15T12:32:39;9.40;;;2.97;;
37201;SDS011;37799;52.390;6.136;2022-10-15T12:35:17;7.03;;;2.20;;
37201;SDS011;37799;52.390;6.136;2022-10-15T12:42:45;7.13;;;2.00;;
37201;SDS011;37799;52.390;6.136;2022-10-15T12:45:26;6.50;;;2.03;;
37201;SDS011;37799;52.390;6.136;2022-10-15T12:50:29;6.43;;;2.15;;
37201;SDS011;37799;52.390;6.136;2022-10-15T12:53:00;7.28;;;1.83;;
37201;SDS011;37799;52.390;6.136;2022-10-15T12:55:37;5.45;;;1.48;;
37201;SDS011;37799;52.390;6.136;2022-10-15T12:58:30;5.47;;;1.65;;
37201;SDS011;37799;52.390;6.136;2022-10-15T13:00:56;5.00;;;1.40;;
37201;SDS011;37799;52.390;6.136;2022-10-15T13:08:46;5.40;;;1.50;;
37201;SDS011;37799;52.390;6.136;2022-10-15T13:11:23;4.93;;;1.30;;
37201;SDS011;37799;52.390;6.136;2022-10-15T13:13:52;3.25;;;0.95;;
37201;SDS011;37799;52.390;6.136;2022-10-15T13:16:23;4.70;;;1.45;;
37201;SDS011;37799;52.390;6.136;2022-10-15T13:18:49;3.65;;;1.00;;
37201;SDS011;37799;52.390;6.136;2022-10-15T13:21:16;3.83;;;1.13;;
37201;SDS011;37799;52.390;6.136;2022-10-15T13:23:45;4.00;;;1.00;;
37201;SDS011;37799;52.390;6.136;2022-10-15T13:26:33;4.07;;;1.40;;
37201;SDS011;37799;52.390;6.136;2022-10-15T13:28:58;4.50;;;1.25;;
37201;SDS011;37799;52.390;6.136;2022-10-15T13:31:24;3.97;;;0.90;;
37201;SDS011;37799;52.390;6.136;2022-10-15T13:33:54;4.97;;;1.15;;
37201;SDS011;37799;52.390;6.136;2022-10-15T13:36:25;3.92;;;1.08;;
37201;SDS011;37799;52.390;6.136;2022-10-15T13:39:38;3.78;;;0.95;;
37201;SDS011;37799;52.390;6.136;2022-10-15T13:41:49;2.70;;;0.70;;
37201;SDS011;37799;52.390;6.136;2022-10-15T13:44:19;3.80;;;1.23;;
37201;SDS011;37799;52.390;6.136;2022-10-15T13:46:46;4.28;;;1.10;;
37201;SDS011;37799;52.390;6.136;2022-10-15T13:49:11;4.50;;;1.17;;
37201;SDS011;37799;52.390;6.136;2022-10-15T13:51:38;4.68;;;1.17;;
37201;SDS011;37799;52.390;6.136;2022-10-15T13:54:08;4.00;;;1.10;;
37201;SDS011;37799;52.390;6.136;2022-10-15T13:56:36;7.03;;;1.42;;
37201;SDS011;37799;52.390;6.136;2022-10-15T13:59:02;3.90;;;1.02;;
37201;SDS011;37799;52.390;6.136;2022-10-15T14:01:28;5.10;;;1.10;;
37201;SDS011;37799;52.390;6.136;2022-10-15T14:03:55;3.97;;;1.02;;
37201;SDS011;37799;52.390;6.136;2022-10-15T14:06:23;5.57;;;1.23;;
37201;SDS011;37799;52.390;6.136;2022-10-15T14:08:49;2.83;;;0.80;;
37201;SDS011;37799;52.390;6.136;2022-10-15T14:11:16;4.43;;;1.02;;
37201;SDS011;37799;52.390;6.136;2022-10-15T14:13:43;3.90;;;1.17;;
37201;SDS011;37799;52.390;6.136;2022-10-15T14:21:30;3.40;;;0.82;;
37201;SDS011;37799;52.390;6.136;2022-10-15T14:24:03;2.83;;;0.60;;
37201;SDS011;37799;52.390;6.136;2022-10-15T14:26:32;3.35;;;0.90;;
37201;SDS011;37799;52.390;6.136;2022-10-15T14:28:58;4.97;;;1.33;;
37201;SDS011;37799;52.390;6.136;2022-10-15T14:31:28;3.53;;;0.93;;
37201;SDS011;37799;52.390;6.136;2022-10-15T14:33:56;3.65;;;0.93;;
37201;SDS011;37799;52.390;6.136;2022-10-15T14:38:52;3.67;;;0.90;;
37201;SDS011;37799;52.390;6.136;2022-10-15T14:41:23;3.47;;;0.82;;
37201;SDS011;37799;52.390;6.136;2022-10-15T14:44:01;4.03;;;0.88;;
37201;SDS011;37799;52.390;6.136;2022-10-15T14:46:41;4.75;;;1.15;;
37201;SDS011;37799;52.390;6.136;2022-10-15T14:49:14;3.75;;;0.95;;
37201;SDS011;37799;52.390;6.136;2022-10-15T14:51:41;4.13;;;1.17;;
37201;SDS011;37799;52.390;6.136;2022-10-15T14:54:10;3.55;;;0.95;;
37201;SDS011;37799;52.390;6.136;2022-10-15T14:56:47;5.07;;;1.08;;
37201;SDS011;37799;52.390;6.136;2022-10-15T14:59:15;5.70;;;1.42;;
37201;SDS011;37799;52.390;6.136;2022-10-15T15:01:50;3.97;;;1.30;;
37201;SDS011;37799;52.390;6.136;2022-10-15T15:04:31;3.70;;;0.95;;
37201;SDS011;37799;52.390;6.136;2022-10-15T15:07:01;3.63;;;0.93;;
37201;SDS011;37799;52.390;6.136;2022-10-15T15:09:30;3.97;;;1.08;;
37201;SDS011;37799;52.390;6.136;2022-10-15T15:11:55;4.63;;;1.30;;
37201;SDS011;37799;52.390;6.136;2022-10-15T15:14:24;4.65;;;1.13;;
37201;SDS011;37799;52.390;6.136;2022-10-15T15:16:49;4.57;;;1.20;;
37201;SDS011;37799;52.390;6.136;2022-10-15T15:19:15;4.70;;;1.00;;
37201;SDS011;37799;52.390;6.136;2022-10-15T15:21:40;3.77;;;1.00;;
37201;SDS011;37799;52.390;6.136;2022-10-15T15:24:06;2.97;;;0.80;;
37201;SDS011;37799;52.390;6.136;2022-10-15T15:26:32;5.20;;;1.08;;
37201;SDS011;37799;52.390;6.136;2022-10-15T15:28:58;3.97;;;1.10;;
37201;SDS011;37799;52.390;6.136;2022-10-15T15:31:23;4.50;;;0.90;;
37201;SDS011;37799;52.390;6.136;2022-10-15T15:33:48;3.20;;;1.00;;
37201;SDS011;37799;52.390;6.136;2022-10-15T15:36:17;5.90;;;1.30;;
37201;SDS011;37799;52.390;6.136;2022-10-15T15:38:43;4.32;;;1.40;;
37201;SDS011;37799;52.390;6.136;2022-10-15T15:41:15;4.32;;;1.20;;
37201;SDS011;37799;52.390;6.136;2022-10-15T15:43:44;5.32;;;1.35;;
37201;SDS011;37799;52.390;6.136;2022-10-15T15:46:10;4.88;;;1.50;;
37201;SDS011;37799;52.390;6.136;2022-10-15T15:48:36;4.35;;;1.10;;
37201;SDS011;37799;52.390;6.136;2022-10-15T15:51:06;4.47;;;1.23;;
37201;SDS011;37799;52.390;6.136;2022-10-15T15:53:34;4.30;;;1.30;;
37201;SDS011;37799;52.390;6.136;2022-10-15T15:55:59;4.47;;;1.30;;
37201;SDS011;37799;52.390;6.136;2022-10-15T15:58:25;4.77;;;1.17;;
37201;SDS011;37799;52.390;6.136;2022-10-15T16:00:50;3.63;;;1.10;;
37201;SDS011;37799;52.390;6.136;2022-10-15T16:03:15;4.77;;;1.20;;
37201;SDS011;37799;52.390;6.136;2022-10-15T16:05:41;3.27;;;1.00;;
37201;SDS011;37799;52.390;6.136;2022-10-15T16:08:07;3.88;;;1.05;;
37201;SDS011;37799;52.390;6.136;2022-10-15T16:10:33;4.68;;;1.05;;
37201;SDS011;37799;52.390;6.136;2022-10-15T16:12:59;3.75;;;1.00;;
37201;SDS011;37799;52.390;6.136;2022-10-15T16:15:25;3.85;;;0.90;;
37201;SDS011;37799;52.390;6.136;2022-10-15T16:17:50;3.40;;;0.70;;
37201;SDS011;37799;52.390;6.136;2022-10-15T16:20:15;3.85;;;0.85;;
37201;SDS011;37799;52.390;6.136;2022-10-15T16:22:41;4.05;;;0.95;;
37201;SDS011;37799;52.390;6.136;2022-10-15T16:25:07;3.80;;;0.82;;
37201;SDS011;37799;52.390;6.136;2022-10-15T16:27:32;3.50;;;0.70;;
37201;SDS011;37799;52.390;6.136;2022-10-15T16:29:58;2.60;;;0.60;;
37201;SDS011;37799;52.390;6.136;2022-10-15T16:32:24;4.20;;;0.75;;